createdAt,value
2018-11-14T00:01:07.465Z,93.20
2018-11-14T00:03:35.361Z,93.30
2018-11-14T00:06:03.278Z,93.30
2018-11-14T00:08:33.162Z,93.40
2018-11-14T00:11:10.409Z,93.20
2018-11-14T00:13:38.221Z,93.10
2018-11-14T00:16:06.573Z,93.10
2018-11-14T00:18:35.585Z,93.30
2018-11-14T00:21:03.410Z,93.20
2018-11-14T00:23:31.178Z,93.30
2018-11-14T00:25:58.998Z,93.30
2018-11-14T00:28:26.843Z,93.10
2018-11-14T00:30:54.642Z,93.00
2018-11-14T00:33:22.421Z,92.80
2018-11-14T00:35:50.221Z,92.70
2018-11-14T00:38:18.061Z,92.90
2018-11-14T00:40:45.863Z,93.00
2018-11-14T00:43:13.684Z,93.00
2018-11-14T00:45:41.516Z,93.10
2018-11-14T00:48:09.389Z,93.40
2018-11-14T00:50:37.267Z,93.20
2018-11-14T00:53:05.156Z,93.40
2018-11-14T00:55:33.956Z,93.50
2018-11-14T00:58:01.920Z,93.40
2018-11-14T01:00:29.929Z,93.50
2018-11-14T01:02:57.757Z,93.70
2018-11-14T01:05:25.581Z,93.60
2018-11-14T01:07:53.425Z,93.50
2018-11-14T01:10:21.945Z,93.50
2018-11-14T01:12:50.397Z,93.60
2018-11-14T01:15:20.202Z,93.50
2018-11-14T01:17:48.933Z,93.50
2018-11-14T01:20:17.961Z,93.40
2018-11-14T01:22:46.049Z,93.60
2018-11-14T01:25:14.925Z,93.50
2018-11-14T01:27:43.288Z,93.60
2018-11-14T01:30:13.945Z,93.50
2018-11-14T01:32:42.344Z,93.30
2018-11-14T01:35:10.227Z,93.20
2018-11-14T01:37:38.107Z,93.20
2018-11-14T01:40:09.617Z,93.30
2018-11-14T01:42:37.505Z,93.30
2018-11-14T01:45:07.900Z,93.20
2018-11-14T01:47:35.827Z,93.00
2018-11-14T01:50:04.034Z,92.90
2018-11-14T01:52:31.998Z,92.90
2018-11-14T01:54:59.961Z,92.80
2018-11-14T01:57:27.778Z,92.80
2018-11-14T01:59:55.602Z,93.10
2018-11-14T02:02:24.297Z,93.20
2018-11-14T02:04:52.201Z,93.30
2018-11-14T02:07:20.709Z,93.50
2018-11-14T02:09:48.654Z,93.50
2018-11-14T02:12:16.824Z,94.00
2018-11-14T02:14:44.680Z,94.20
2018-11-14T02:17:12.678Z,94.00
2018-11-14T02:19:40.619Z,94.20
2018-11-14T02:22:08.520Z,94.80
2018-11-14T02:24:36.444Z,94.70
2018-11-14T02:27:04.825Z,94.90
2018-11-14T02:29:32.733Z,94.90
2018-11-14T02:32:00.558Z,94.40
2018-11-14T02:34:28.344Z,94.20
2018-11-14T02:36:56.201Z,94.30
2018-11-14T02:39:24.053Z,94.20
2018-11-14T02:41:51.849Z,94.30
2018-11-14T02:44:19.659Z,94.40
2018-11-14T02:46:47.447Z,94.40
2018-11-14T02:49:15.307Z,94.50
2018-11-14T02:51:43.284Z,94.80
2018-11-14T02:54:11.084Z,94.90
2018-11-14T02:56:38.895Z,95.10
2018-11-14T02:59:07.079Z,95.10
2018-11-14T03:01:34.872Z,95.20
2018-11-14T03:04:02.837Z,95.20
2018-11-14T03:06:30.663Z,95.20
2018-11-14T03:08:58.448Z,95.50
2018-11-14T03:11:26.241Z,95.50
2018-11-14T03:13:54.030Z,95.80
2018-11-14T03:16:21.896Z,95.80
2018-11-14T03:18:49.713Z,95.70
2018-11-14T03:21:17.551Z,95.30
2018-11-14T03:23:45.662Z,95.40
2018-11-14T03:26:13.529Z,95.50
2018-11-14T03:28:41.420Z,96.10
2018-11-14T03:31:09.265Z,96.20
2018-11-14T03:33:37.131Z,96.00
2018-11-14T03:36:11.117Z,95.40
2018-11-14T03:38:40.255Z,95.30
2018-11-14T03:41:08.364Z,95.30
2018-11-14T03:43:36.225Z,95.00
2018-11-14T03:46:04.106Z,95.20
2018-11-14T03:48:32.217Z,95.40
2018-11-14T03:51:00.152Z,95.70
2018-11-14T03:53:28.016Z,95.90
2018-11-14T03:55:55.894Z,95.40
2018-11-14T03:58:23.821Z,95.20
2018-11-14T04:00:51.666Z,94.80
2018-11-14T04:03:19.480Z,94.70
2018-11-14T04:05:47.337Z,94.90
2018-11-14T04:08:15.160Z,95.10
2018-11-14T04:10:43.005Z,95.30
2018-11-14T04:13:10.957Z,95.70
2018-11-14T04:15:38.925Z,95.80
2018-11-14T04:18:07.077Z,95.90
2018-11-14T04:20:35.134Z,96.20
2018-11-14T04:23:03.090Z,95.90
2018-11-14T04:25:31.267Z,95.10
2018-11-14T04:27:59.183Z,94.70
2018-11-14T04:30:26.947Z,94.20
2018-11-14T04:32:54.784Z,94.10
2018-11-14T04:35:22.605Z,93.90
2018-11-14T04:37:50.537Z,93.00
2018-11-14T04:40:20.143Z,92.50
2018-11-14T04:42:48.011Z,92.70
2018-11-14T04:45:24.608Z,92.80
2018-11-14T04:47:52.583Z,93.00
2018-11-14T04:50:22.093Z,92.80
2018-11-14T04:52:50.267Z,92.70
2018-11-14T04:55:19.267Z,92.50
2018-11-14T04:57:47.525Z,92.10
2018-11-14T05:00:16.103Z,91.80
2018-11-14T05:02:44.598Z,91.80
2018-11-14T05:05:13.905Z,91.50
2018-11-14T05:07:41.809Z,91.10
2018-11-14T05:10:11.930Z,91.10
2018-11-14T05:12:40.416Z,91.40
2018-11-14T05:15:09.428Z,91.80
2018-11-14T05:17:37.264Z,92.10
2018-11-14T05:20:06.057Z,92.30
2018-11-14T05:22:34.060Z,92.40
2018-11-14T05:25:01.923Z,92.40
2018-11-14T05:27:29.732Z,92.60
2018-11-14T05:29:57.552Z,92.70
2018-11-14T05:32:25.388Z,92.80
2018-11-14T05:34:53.302Z,92.80
2018-11-14T05:37:21.098Z,93.20
2018-11-14T05:39:50.119Z,92.50
2018-11-14T05:42:17.860Z,92.30
2018-11-14T05:44:46.825Z,92.30
2018-11-14T05:47:14.635Z,92.20
2018-11-14T05:49:42.603Z,92.30
2018-11-14T05:52:10.405Z,92.40
2018-11-14T05:54:38.582Z,92.10
2018-11-14T05:57:06.573Z,92.20
2018-11-14T05:59:34.485Z,92.40
2018-11-14T06:02:02.559Z,92.20
2018-11-14T06:04:30.368Z,92.20
2018-11-14T06:06:58.650Z,92.30
2018-11-14T06:09:27.037Z,92.20
2018-11-14T06:11:54.835Z,92.10
2018-11-14T06:14:22.632Z,92.20
2018-11-14T06:16:50.401Z,92.20
2018-11-14T06:19:18.214Z,92.40
2018-11-14T06:21:46.078Z,92.50
2018-11-14T06:24:13.911Z,92.20
2018-11-14T06:26:41.819Z,92.20
2018-11-14T06:29:09.617Z,92.00
2018-11-14T06:31:37.515Z,91.90
2018-11-14T06:34:07.489Z,91.90
2018-11-14T06:36:35.553Z,92.20
2018-11-14T06:39:05.149Z,92.00
2018-11-14T06:41:33.030Z,91.90
2018-11-14T06:44:00.837Z,91.90
2018-11-14T06:46:28.665Z,92.10
2018-11-14T06:48:56.745Z,91.40
2018-11-14T06:51:24.597Z,91.20
2018-11-14T06:53:52.392Z,91.30
2018-11-14T06:56:20.207Z,91.50
2018-11-14T06:58:48.120Z,91.90
2018-11-14T07:01:15.868Z,92.10
2018-11-14T07:03:44.868Z,92.10
2018-11-14T07:06:12.720Z,92.30
2018-11-14T07:08:40.544Z,92.50
2018-11-14T07:11:09.358Z,92.40
2018-11-14T07:13:38.702Z,92.50
2018-11-14T07:16:06.719Z,92.30
2018-11-14T07:18:38.011Z,92.10
2018-11-14T07:21:06.006Z,91.80
2018-11-14T07:23:34.408Z,91.80
2018-11-14T07:26:02.450Z,91.60
2018-11-14T07:28:30.342Z,91.70
2018-11-14T07:30:58.170Z,91.80
2018-11-14T07:33:25.955Z,91.40
2018-11-14T07:35:53.729Z,91.30
2018-11-14T07:38:40.991Z,91.40
2018-11-14T07:41:10.692Z,91.20
2018-11-14T07:43:38.961Z,90.90
2018-11-14T07:46:07.242Z,90.90
2018-11-14T07:48:35.317Z,90.50
2018-11-14T07:51:03.689Z,90.20
2018-11-14T07:53:32.273Z,89.70
2018-11-14T07:56:00.060Z,89.60
2018-11-14T07:58:27.982Z,89.10
2018-11-14T08:00:56.260Z,88.30
2018-11-14T08:03:24.152Z,88.30
2018-11-14T08:05:52.176Z,87.80
2018-11-14T08:08:20.172Z,87.30
2018-11-14T08:10:47.919Z,86.10
2018-11-14T08:13:17.837Z,85.90
2018-11-14T08:15:45.674Z,88.10
2018-11-14T08:18:13.484Z,88.60
2018-11-14T08:20:41.335Z,86.70
2018-11-14T08:23:09.169Z,85.20
2018-11-14T08:25:37.018Z,84.60
2018-11-14T08:28:05.341Z,84.10
2018-11-14T08:30:33.309Z,83.80
2018-11-14T08:33:01.447Z,82.50
2018-11-14T08:35:29.927Z,82.90
2018-11-14T08:37:58.108Z,82.20
2018-11-14T08:40:26.073Z,82.30
2018-11-14T08:42:53.885Z,82.50
2018-11-14T08:45:21.713Z,82.50
2018-11-14T08:47:49.509Z,83.70
2018-11-14T08:50:17.495Z,85.00
2018-11-14T08:52:45.613Z,86.20
2018-11-14T08:55:14.084Z,87.60
2018-11-14T08:57:43.125Z,88.70
2018-11-14T09:00:17.433Z,87.60
2018-11-14T09:02:45.728Z,87.80
2018-11-14T09:05:13.603Z,88.10
2018-11-14T09:07:41.512Z,88.00
2018-11-14T09:10:19.070Z,87.80
2018-11-14T09:12:47.311Z,87.30
2018-11-14T09:15:16.644Z,87.40
2018-11-14T09:17:44.435Z,86.90
2018-11-14T09:20:13.725Z,86.60
2018-11-14T09:22:41.888Z,87.20
2018-11-14T09:25:11.825Z,87.30
2018-11-14T09:27:39.905Z,86.80
2018-11-14T09:30:10.069Z,87.30
2018-11-14T09:32:37.909Z,87.80
2018-11-14T09:35:07.203Z,87.40
2018-11-14T09:37:35.172Z,86.70
2018-11-14T09:40:03.551Z,84.50
2018-11-14T09:42:31.332Z,83.50
2018-11-14T09:44:59.153Z,80.80
2018-11-14T09:47:26.949Z,80.40
2018-11-14T09:49:54.893Z,78.80
2018-11-14T09:52:22.781Z,79.20
2018-11-14T09:54:50.574Z,80.10
2018-11-14T09:57:18.377Z,80.20
2018-11-14T09:59:46.181Z,80.30
2018-11-14T10:02:13.970Z,79.70
2018-11-14T10:04:41.841Z,79.40
2018-11-14T10:07:09.727Z,79.60
2018-11-14T10:09:37.551Z,80.00
2018-11-14T10:12:05.937Z,80.20
2018-11-14T10:14:33.795Z,80.40
2018-11-14T10:17:01.549Z,80.60
2018-11-14T10:19:29.341Z,80.80
2018-11-14T10:21:57.136Z,81.00
2018-11-14T10:24:25.668Z,80.80
2018-11-14T10:26:53.454Z,80.20
2018-11-14T10:29:21.221Z,80.80
2018-11-14T10:31:49.122Z,80.90
2018-11-14T10:34:16.849Z,80.70
2018-11-14T10:36:44.615Z,81.10
2018-11-14T10:39:12.399Z,81.20
2018-11-14T10:41:40.626Z,81.00
2018-11-14T10:44:08.964Z,81.00
2018-11-14T10:46:36.865Z,81.70
2018-11-14T10:49:05.173Z,81.60
2018-11-14T10:51:32.980Z,82.00
2018-11-14T10:54:00.950Z,81.90
2018-11-14T10:56:28.757Z,81.60
2018-11-14T10:58:56.622Z,81.60
2018-11-14T11:01:29.937Z,81.90
2018-11-14T11:04:03.292Z,81.70
2018-11-14T11:06:36.577Z,81.20
2018-11-14T11:09:14.757Z,80.60
2018-11-14T11:11:48.489Z,80.70
2018-11-14T11:14:21.852Z,80.70
2018-11-14T11:16:55.290Z,80.80
2018-11-14T11:19:25.307Z,81.10
2018-11-14T11:21:53.319Z,80.90
2018-11-14T11:24:22.037Z,80.80
2018-11-14T11:26:49.837Z,81.30
2018-11-14T11:29:17.624Z,82.10
2018-11-14T11:31:45.453Z,82.70
2018-11-14T11:34:13.595Z,82.90
2018-11-14T11:36:41.691Z,83.00
2018-11-14T11:39:13.206Z,83.50
2018-11-14T11:41:41.985Z,83.80
2018-11-14T11:44:09.889Z,84.20
2018-11-14T11:46:38.535Z,84.40
2018-11-14T11:49:06.472Z,84.80
2018-11-14T11:51:34.301Z,85.10
2018-11-14T11:54:02.121Z,85.20
2018-11-14T11:56:29.901Z,85.30
2018-11-14T11:58:57.757Z,85.60
2018-11-14T12:01:25.572Z,86.10
2018-11-14T12:03:53.427Z,86.20
2018-11-14T12:06:21.651Z,85.50
2018-11-14T12:08:48.992Z,85.70
2018-11-14T12:11:16.809Z,85.70
2018-11-14T12:13:44.679Z,85.90
2018-11-14T12:16:12.789Z,86.10
2018-11-14T12:18:40.696Z,86.20
2018-11-14T12:21:08.764Z,86.10
2018-11-14T12:23:36.768Z,86.50
2018-11-14T12:26:04.783Z,86.50
2018-11-14T12:28:32.585Z,86.50
2018-11-14T12:31:00.448Z,86.90
2018-11-14T12:33:28.172Z,86.60
2018-11-14T12:35:55.980Z,86.80
2018-11-14T12:38:23.814Z,86.90
2018-11-14T12:40:51.601Z,87.20
2018-11-14T12:43:19.453Z,87.30
2018-11-14T12:45:48.165Z,87.90
2018-11-14T12:48:16.992Z,87.00
2018-11-14T12:50:44.813Z,86.60
2018-11-14T12:53:12.933Z,86.70
2018-11-14T12:55:40.761Z,86.80
2018-11-14T12:58:08.582Z,87.30
2018-11-14T13:00:36.475Z,87.70
2018-11-14T13:03:04.511Z,87.20
2018-11-14T13:05:32.284Z,87.70
2018-11-14T13:08:00.044Z,87.80
2018-11-14T13:10:27.890Z,87.80
2018-11-14T13:12:55.685Z,87.90
2018-11-14T13:15:23.485Z,87.90
2018-11-14T13:17:51.829Z,87.80
2018-11-14T13:20:21.173Z,88.10
2018-11-14T13:22:48.941Z,88.00
2018-11-14T13:25:16.806Z,87.60
2018-11-14T13:27:45.735Z,87.90
2018-11-14T13:30:15.192Z,88.20
2018-11-14T13:32:43.474Z,88.50
2018-11-14T13:35:12.659Z,88.10
2018-11-14T13:37:41.013Z,88.30
2018-11-14T13:40:09.489Z,88.40
2018-11-14T13:42:37.705Z,88.70
2018-11-14T13:45:07.146Z,89.10
2018-11-14T13:47:35.353Z,89.30
2018-11-14T13:50:03.616Z,89.60
2018-11-14T13:52:35.148Z,89.80
2018-11-14T13:55:02.992Z,89.60
2018-11-14T13:57:31.061Z,90.10
2018-11-14T13:59:58.896Z,90.00
2018-11-14T14:02:26.693Z,89.60
2018-11-14T14:04:54.481Z,90.10
2018-11-14T14:07:22.306Z,90.30
2018-11-14T14:09:50.077Z,90.40
2018-11-14T14:12:17.859Z,90.50
2018-11-14T14:14:45.679Z,90.50
2018-11-14T14:17:13.533Z,90.40
2018-11-14T14:19:41.408Z,90.40
2018-11-14T14:22:09.214Z,90.50
2018-11-14T14:24:37.013Z,90.50
2018-11-14T14:27:06.014Z,90.50
2018-11-14T14:29:33.849Z,90.50
2018-11-14T14:32:01.653Z,90.50
2018-11-14T14:34:29.457Z,90.30
2018-11-14T14:36:57.233Z,90.30
2018-11-14T14:39:25.033Z,90.30
2018-11-14T14:41:52.830Z,90.40
2018-11-14T14:44:20.589Z,90.60
2018-11-14T14:46:48.353Z,90.50
2018-11-14T14:49:16.193Z,90.40
2018-11-14T14:51:44.153Z,90.30
2018-11-14T14:54:12.031Z,90.20
2018-11-14T14:56:39.869Z,90.30
2018-11-14T14:59:07.801Z,90.40
2018-11-14T15:01:35.818Z,90.40
2018-11-14T15:04:03.641Z,90.40
2018-11-14T15:06:31.542Z,90.30
2018-11-14T15:08:59.454Z,90.40
2018-11-14T15:11:27.346Z,90.50
2018-11-14T15:13:55.222Z,90.70
2018-11-14T15:16:23.050Z,90.50
2018-11-14T15:18:51.252Z,90.60
2018-11-14T15:21:19.060Z,90.60
2018-11-14T15:23:46.861Z,90.60
2018-11-14T15:26:14.660Z,90.70
2018-11-14T15:28:42.492Z,90.70
2018-11-14T15:31:10.346Z,90.80
2018-11-14T15:33:38.297Z,90.20
2018-11-14T15:36:06.268Z,90.20
2018-11-14T15:38:34.033Z,90.30
2018-11-14T15:41:01.829Z,90.20
2018-11-14T15:43:29.677Z,90.30
2018-11-14T15:45:57.467Z,90.70
2018-11-14T15:48:25.289Z,91.10
2018-11-14T15:50:53.070Z,91.40
2018-11-14T15:53:20.912Z,91.60
2018-11-14T15:55:48.717Z,91.60
2018-11-14T15:58:16.537Z,91.60
2018-11-14T16:00:44.339Z,91.70
2018-11-14T16:03:12.115Z,91.70
2018-11-14T16:05:40.016Z,92.20
2018-11-14T16:08:07.929Z,91.90
2018-11-14T16:10:35.834Z,92.00
2018-11-14T16:13:03.665Z,91.80
2018-11-14T16:15:32.937Z,91.40
2018-11-14T16:18:00.812Z,91.30
2018-11-14T16:20:28.705Z,91.80
2018-11-14T16:22:56.590Z,92.00
2018-11-14T16:25:25.144Z,92.10
2018-11-14T16:27:54.317Z,92.60
2018-11-14T16:30:30.117Z,92.00
2018-11-14T16:32:59.041Z,92.00
2018-11-14T16:35:26.970Z,92.20
2018-11-14T16:37:54.798Z,92.30
2018-11-14T16:40:23.909Z,92.10
2018-11-14T16:42:52.678Z,92.20
2018-11-14T16:45:20.486Z,92.30
2018-11-14T16:47:48.332Z,92.40
2018-11-14T16:50:17.156Z,92.00
2018-11-14T16:52:45.057Z,92.00
2018-11-14T16:55:14.176Z,91.90
2018-11-14T16:57:42.769Z,91.50
2018-11-14T17:00:14.571Z,92.10
2018-11-14T17:02:42.646Z,92.60
2018-11-14T17:05:10.973Z,92.40
2018-11-14T17:07:41.037Z,92.70
2018-11-14T17:10:11.449Z,92.60
2018-11-14T17:12:39.648Z,92.60
2018-11-14T17:15:09.488Z,92.60
2018-11-14T17:17:37.300Z,92.40
2018-11-14T17:20:05.511Z,92.30
2018-11-14T17:22:33.485Z,92.50
2018-11-14T17:25:02.165Z,92.80
2018-11-14T17:27:29.995Z,93.20
2018-11-14T17:29:57.816Z,93.20
2018-11-14T17:32:25.609Z,93.30
2018-11-14T17:34:53.439Z,92.80
2018-11-14T17:37:21.213Z,92.90
2018-11-14T17:39:49.053Z,92.70
2018-11-14T17:42:16.972Z,93.00
2018-11-14T17:44:44.993Z,93.30
2018-11-14T17:47:12.769Z,93.60
2018-11-14T17:49:40.722Z,93.80
2018-11-14T17:52:08.832Z,93.40
2018-11-14T17:54:36.737Z,93.50
2018-11-14T17:57:04.761Z,93.50
2018-11-14T17:59:32.541Z,93.60
2018-11-14T18:02:00.388Z,93.60
2018-11-14T18:04:28.224Z,93.30
2018-11-14T18:06:56.078Z,93.00
2018-11-14T18:09:23.868Z,93.30
2018-11-14T18:11:51.617Z,93.40
2018-11-14T18:14:19.405Z,93.80
2018-11-14T18:16:47.215Z,93.90
2018-11-14T18:19:15.021Z,94.10
2018-11-14T18:21:42.829Z,94.40
2018-11-14T18:24:10.745Z,94.60
2018-11-14T18:26:38.641Z,94.60
2018-11-14T18:29:06.899Z,93.60
2018-11-14T18:31:35.136Z,93.80
2018-11-14T18:34:03.049Z,93.90
2018-11-14T18:36:31.315Z,93.50
2018-11-14T18:39:00.151Z,92.40
2018-11-14T18:41:28.628Z,92.10
2018-11-14T18:43:57.176Z,92.40
2018-11-14T18:46:25.375Z,93.00
2018-11-14T18:48:54.652Z,93.00
2018-11-14T18:51:22.895Z,92.60
2018-11-14T18:53:51.263Z,92.70
2018-11-14T18:56:20.539Z,92.60
2018-11-14T18:58:49.086Z,92.50
2018-11-14T19:01:17.327Z,92.60
2018-11-14T19:03:47.310Z,93.10
2018-11-14T19:06:15.947Z,93.50
2018-11-14T19:08:44.384Z,94.10
2018-11-14T19:11:13.017Z,94.40
2018-11-14T19:13:42.184Z,94.80
2018-11-14T19:16:10.887Z,95.00
2018-11-14T19:18:39.838Z,95.40
2018-11-14T19:21:08.643Z,95.30
2018-11-14T19:23:37.156Z,95.40
2018-11-14T19:26:06.511Z,95.30
2018-11-14T19:28:34.848Z,95.00
2018-11-14T19:31:03.040Z,95.50
2018-11-14T19:33:38.186Z,95.90
2018-11-14T19:36:07.390Z,96.00
2018-11-14T19:38:36.055Z,95.50
2018-11-14T19:41:04.554Z,95.40
2018-11-14T19:43:32.739Z,95.50
2018-11-14T19:46:00.999Z,95.60
2018-11-14T19:48:29.245Z,95.60
2018-11-14T19:50:57.475Z,95.50
2018-11-14T19:53:26.176Z,95.10
2018-11-14T19:55:54.527Z,95.30
2018-11-14T19:58:22.722Z,95.20
2018-11-14T20:00:50.936Z,95.60
2018-11-14T20:03:19.211Z,95.40
2018-11-14T20:05:48.621Z,95.10
2018-11-14T20:08:17.010Z,94.90
2018-11-14T20:10:45.228Z,94.90
2018-11-14T20:13:13.536Z,94.50
2018-11-14T20:15:42.286Z,93.80
2018-11-14T20:18:10.636Z,93.60
2018-11-14T20:20:39.656Z,93.60
2018-11-14T20:23:07.986Z,93.80
2018-11-14T20:25:36.398Z,93.80
2018-11-14T20:28:04.618Z,93.70
2018-11-14T20:30:35.057Z,93.50
2018-11-14T20:33:06.396Z,93.70
2018-11-14T20:35:34.612Z,94.00
2018-11-14T20:38:02.870Z,93.50
2018-11-14T20:40:31.070Z,93.60
2018-11-14T20:42:59.426Z,93.90
2018-11-14T20:45:31.944Z,94.30
2018-11-14T20:48:00.247Z,94.40
2018-11-14T20:50:28.500Z,94.30
2018-11-14T20:52:58.232Z,94.00
2018-11-14T20:55:26.659Z,93.90
2018-11-14T20:57:55.300Z,93.70
2018-11-14T21:00:26.436Z,92.90
2018-11-14T21:02:54.595Z,92.50
2018-11-14T21:05:23.515Z,92.30
2018-11-14T21:07:51.843Z,92.50
2018-11-14T21:10:21.197Z,92.80
2018-11-14T21:12:50.173Z,93.00
2018-11-14T21:15:19.803Z,93.00
2018-11-14T21:17:48.606Z,92.40
2018-11-14T21:20:16.586Z,92.60
2018-11-14T21:22:44.634Z,92.60
2018-11-14T21:25:13.889Z,92.40
2018-11-14T21:27:43.013Z,92.20
2018-11-14T21:30:12.509Z,92.40
2018-11-14T21:32:41.068Z,92.60
2018-11-14T21:35:12.459Z,92.70
2018-11-14T21:37:41.181Z,92.90
2018-11-14T21:40:10.721Z,93.10
2018-11-14T21:42:38.865Z,93.20
2018-11-14T21:45:09.232Z,93.50
2018-11-14T21:47:42.591Z,93.50
2018-11-14T21:50:11.011Z,93.60
2018-11-14T21:52:39.269Z,93.60
2018-11-14T21:55:08.292Z,93.30
2018-11-14T21:57:36.782Z,93.20
2018-11-14T22:00:11.791Z,93.30
2018-11-14T22:02:40.261Z,93.00
2018-11-14T22:05:09.270Z,93.00
2018-11-14T22:07:37.482Z,93.00
2018-11-14T22:10:08.793Z,92.60
2018-11-14T22:12:36.698Z,92.70
2018-11-14T22:15:05.282Z,92.80
2018-11-14T22:17:35.199Z,92.70
2018-11-14T22:20:03.228Z,92.70
2018-11-14T22:22:31.146Z,92.20
2018-11-14T22:24:59.159Z,92.00
2018-11-14T22:27:27.099Z,91.90
2018-11-14T22:29:55.017Z,91.90
2018-11-14T22:32:22.980Z,92.00
2018-11-14T22:34:50.973Z,91.90
2018-11-14T22:37:18.989Z,92.30
2018-11-14T22:39:46.854Z,92.20
2018-11-14T22:42:14.889Z,92.30
2018-11-14T22:44:43.086Z,92.30
2018-11-14T22:47:11.433Z,92.50
2018-11-14T22:49:39.608Z,92.90
2018-11-14T22:52:10.102Z,92.60
2018-11-14T22:54:39.617Z,92.60
2018-11-14T22:57:07.740Z,92.80
2018-11-14T22:59:35.800Z,92.70
2018-11-14T23:02:04.010Z,92.80
2018-11-14T23:04:31.977Z,92.70
2018-11-14T23:06:59.909Z,92.90
2018-11-14T23:09:27.802Z,93.00
2018-11-14T23:11:55.707Z,92.70
2018-11-14T23:14:23.796Z,92.70
2018-11-14T23:16:51.845Z,92.00
2018-11-14T23:19:19.972Z,91.40
2018-11-14T23:21:47.993Z,91.50
2018-11-14T23:24:15.969Z,91.70
2018-11-14T23:26:44.235Z,91.50
2018-11-14T23:29:12.282Z,91.50
2018-11-14T23:31:40.390Z,91.70
2018-11-14T23:34:08.405Z,91.80
2018-11-14T23:36:36.284Z,91.90
2018-11-14T23:39:07.544Z,92.20
2018-11-14T23:41:35.681Z,91.40
2018-11-14T23:44:03.674Z,91.70
2018-11-14T23:46:31.594Z,91.60
2018-11-14T23:48:59.890Z,91.40
2018-11-14T23:51:28.149Z,91.40
2018-11-14T23:53:56.193Z,91.50
2018-11-14T23:56:24.189Z,91.70
2018-11-14T23:58:52.300Z,92.10
